Time;durP1;ratioP1;P1;durP2;ratioP2;P2;SDS_P1;SDS_P2;PMS_P1;PMS_P2;Temp;Humidity;BMP_temperature;BMP_pressure;BME280_temperature;BME280_humidity;BME280_pressure;Samples;Min_cycle;Max_cycle;Signal;HPM_P1;HPM_P2
2022/07/14 00:02:16;;;;;;;10.43;1.48;;;15.10;99.90;;;;;;4990170;28;20548;-74
2022/07/14 00:04:41;;;;;;;11.10;1.65;;;15.10;99.90;;;;;;4985731;28;20172;-74
2022/07/14 00:07:07;;;;;;;11.43;1.42;;;15.10;99.90;;;;;;4987550;28;20030;-74
2022/07/14 00:09:32;;;;;;;4.18;1.27;;;15.20;99.90;;;;;;4987663;28;20121;-74
2022/07/14 00:11:58;;;;;;;8.77;1.40;;;15.20;99.90;;;;;;4987073;28;20092;-74
2022/07/14 00:14:24;;;;;;;7.35;1.13;;;15.20;99.90;;;;;;4987062;28;20046;-74
2022/07/14 00:16:50;;;;;;;10.15;1.88;;;15.20;99.90;;;;;;4990603;28;20398;-74
2022/07/14 00:19:16;;;;;;;7.50;1.13;;;15.10;99.90;;;;;;4992152;28;20041;-74
2022/07/14 00:21:41;;;;;;;9.35;1.77;;;15.10;99.90;;;;;;4990786;28;20034;-74
2022/07/14 00:24:09;;;;;;;14.50;2.20;;;15.10;99.90;;;;;;4989297;28;20041;-74
2022/07/14 00:26:35;;;;;;;8.30;1.85;;;15.10;99.90;;;;;;4990918;28;20049;-73
2022/07/14 00:29:00;;;;;;;11.35;1.83;;;15.10;99.90;;;;;;4987390;28;20030;-73
2022/07/14 00:31:26;;;;;;;11.25;1.80;;;15.10;99.90;;;;;;4987003;28;20118;-74
2022/07/14 00:33:51;;;;;;;8.50;1.33;;;15.00;99.90;;;;;;4992104;28;20038;-74
2022/07/14 00:36:17;;;;;;;5.32;1.35;;;15.00;99.90;;;;;;4987909;28;20095;-74
2022/07/14 00:38:42;;;;;;;7.13;1.40;;;15.00;99.90;;;;;;4989860;28;20030;-74
2022/07/14 00:41:08;;;;;;;17.33;1.92;;;15.00;99.90;;;;;;4990115;28;20053;-74
2022/07/14 00:43:34;;;;;;;17.23;2.13;;;15.00;99.90;;;;;;4987231;28;20081;-74
2022/07/14 00:45:59;;;;;;;8.27;1.88;;;15.00;99.90;;;;;;4982134;28;20118;-74
2022/07/14 00:48:27;;;;;;;9.68;1.48;;;15.00;99.90;;;;;;4972523;28;20090;-74
2022/07/14 00:50:53;;;;;;;10.88;1.90;;;15.00;99.90;;;;;;4972468;28;20051;-74
2022/07/14 00:53:19;;;;;;;9.68;1.40;;;15.00;99.90;;;;;;4976991;28;20041;-73
2022/07/14 00:55:45;;;;;;;9.88;1.60;;;15.00;99.90;;;;;;4989805;28;20034;-74
2022/07/14 00:58:11;;;;;;;12.07;1.80;;;15.00;99.90;;;;;;4988609;28;20058;-74
2022/07/14 01:00:37;;;;;;;9.45;1.75;;;15.00;99.90;;;;;;4987853;28;20034;-74
2022/07/14 01:03:05;;;;;;;9.07;1.55;;;15.00;99.90;;;;;;4992613;28;20077;-74
2022/07/14 01:05:31;;;;;;;10.73;2.13;;;15.10;99.90;;;;;;4991061;28;20026;-74
2022/07/14 01:07:56;;;;;;;13.93;2.45;;;15.10;99.90;;;;;;4993374;28;20113;-74
2022/07/14 01:10:22;;;;;;;12.18;1.63;;;15.20;99.90;;;;;;4994645;28;20038;-73
2022/07/14 01:12:48;;;;;;;12.65;1.98;;;15.20;99.90;;;;;;4993967;28;20034;-74
2022/07/14 01:15:17;;;;;;;8.93;1.38;;;15.20;99.90;;;;;;4991737;28;20030;-74
2022/07/14 01:17:44;;;;;;;14.05;1.77;;;15.30;99.90;;;;;;4991956;28;20041;-73
2022/07/14 01:20:10;;;;;;;11.52;2.15;;;15.30;99.90;;;;;;4982252;28;20035;-73
2022/07/14 01:22:36;;;;;;;12.50;2.10;;;15.30;99.90;;;;;;4976140;28;20114;-73
2022/07/14 01:25:02;;;;;;;12.23;2.20;;;15.30;99.90;;;;;;4984349;28;20097;-74
2022/07/14 01:27:27;;;;;;;13.75;2.05;;;15.30;99.90;;;;;;4990973;28;20360;-73
2022/07/14 01:29:54;;;;;;;16.90;2.30;;;15.30;99.90;;;;;;4978924;28;20078;-74
2022/07/14 01:32:19;;;;;;;9.07;1.15;;;15.40;99.90;;;;;;4979678;28;20045;-74
2022/07/14 01:34:44;;;;;;;11.13;1.90;;;15.30;99.90;;;;;;4992346;28;20766;-73
2022/07/14 01:37:10;;;;;;;14.60;2.08;;;15.30;99.90;;;;;;4993154;28;20038;-74
2022/07/14 01:39:35;;;;;;;14.90;1.80;;;15.30;99.90;;;;;;4988697;28;20034;-74
2022/07/14 01:42:01;;;;;;;11.82;1.42;;;15.30;99.90;;;;;;4990206;28;20042;-74
2022/07/14 01:44:27;;;;;;;10.00;1.20;;;15.20;99.90;;;;;;4991971;28;20034;-74
2022/07/14 01:46:52;;;;;;;14.93;1.65;;;15.30;99.90;;;;;;4994091;28;20112;-74
2022/07/14 01:49:18;;;;;;;12.05;1.40;;;15.20;99.90;;;;;;4993066;28;20030;-74
2022/07/14 01:51:43;;;;;;;13.20;1.70;;;15.20;99.90;;;;;;4993529;28;20398;-74
2022/07/14 01:54:09;;;;;;;11.95;1.75;;;15.10;99.90;;;;;;4992662;28;20034;-74
2022/07/14 01:56:39;;;;;;;12.73;1.60;;;15.10;99.90;;;;;;4987534;28;20054;-73
2022/07/14 01:59:05;;;;;;;11.00;1.33;;;15.00;99.90;;;;;;4991551;23;20422;-73
2022/07/14 02:01:40;;;;;;;10.00;1.50;;;14.90;99.90;;;;;;4985425;28;20031;-73
2022/07/14 02:04:11;;;;;;;13.57;1.42;;;14.80;99.90;;;;;;4964166;28;20031;-73
2022/07/14 02:06:44;;;;;;;11.80;1.87;;;14.70;99.90;;;;;;4969032;28;20031;-73
2022/07/14 02:09:10;;;;;;;8.38;1.42;;;14.70;99.90;;;;;;4972941;28;20038;-73
2022/07/14 02:14:21;;;;;;;12.70;1.90;;;14.50;99.90;;;;;;4969373;28;20040;-73
2022/07/14 02:16:47;;;;;;;13.65;1.58;;;14.50;99.90;;;;;;4973879;28;20074;-73
2022/07/14 02:19:12;;;;;;;10.00;1.75;;;14.40;99.90;;;;;;4974465;28;20086;-73
2022/07/14 02:21:39;;;;;;;8.50;1.52;;;14.30;99.90;;;;;;4974132;28;20486;-73
2022/07/14 02:24:07;;;;;;;11.57;1.60;;;14.30;99.90;;;;;;4967602;28;20043;-74
2022/07/14 02:26:32;;;;;;;13.35;2.28;;;14.20;99.90;;;;;;4970244;28;20093;-73
2022/07/14 02:28:58;;;;;;;15.30;2.08;;;14.20;99.90;;;;;;4974237;28;20030;-73
2022/07/14 02:31:23;;;;;;;11.75;1.23;;;14.10;99.90;;;;;;4974265;28;20487;-74
2022/07/14 02:33:49;;;;;;;13.00;2.47;;;14.10;99.90;;;;;;4972304;28;20035;-74
2022/07/14 02:36:15;;;;;;;13.02;1.48;;;14.10;99.90;;;;;;4974342;28;20030;-73
2022/07/14 02:38:40;;;;;;;11.82;2.05;;;14.00;99.90;;;;;;4974540;28;20031;-73
2022/07/14 02:41:06;;;;;;;16.27;3.08;;;14.00;99.90;;;;;;4972316;28;20034;-74
2022/07/14 02:43:32;;;;;;;8.48;1.77;;;13.90;99.90;;;;;;4974737;28;20031;-74
2022/07/14 02:45:59;;;;;;;12.55;1.38;;;13.90;99.90;;;;;;4973529;28;20027;-74
2022/07/14 02:48:25;;;;;;;10.07;1.58;;;13.80;99.90;;;;;;4969584;28;20038;-73
2022/07/14 02:50:51;;;;;;;8.93;1.50;;;13.80;99.90;;;;;;4971581;28;20046;-74
2022/07/14 02:53:16;;;;;;;10.45;1.73;;;13.70;99.90;;;;;;4971771;28;20035;-73
2022/07/14 02:55:42;;;;;;;10.90;2.30;;;13.60;99.90;;;;;;4971170;28;20429;-73
2022/07/14 02:58:07;;;;;;;14.27;2.28;;;13.60;99.90;;;;;;4971121;28;20039;-74
2022/07/14 03:00:33;;;;;;;16.45;2.13;;;13.50;99.90;;;;;;4972373;28;20094;-73
2022/07/14 03:03:01;;;;;;;11.90;2.50;;;13.50;99.90;;;;;;4971064;28;20030;-73
2022/07/14 03:05:27;;;;;;;11.57;1.80;;;13.40;99.90;;;;;;4971513;28;20034;-74
2022/07/14 03:07:53;;;;;;;10.45;1.90;;;13.40;99.90;;;;;;4970799;28;20031;-73
2022/07/14 03:10:18;;;;;;;9.98;1.50;;;13.40;99.90;;;;;;4972230;28;20038;-73
2022/07/14 03:12:44;;;;;;;9.15;1.73;;;13.30;99.90;;;;;;4972532;28;20035;-75
2022/07/14 03:15:10;;;;;;;6.97;1.45;;;13.20;99.90;;;;;;4969643;28;20065;-74
2022/07/14 03:17:38;;;;;;;6.70;1.30;;;13.20;99.90;;;;;;4973403;28;20042;-72
2022/07/14 03:20:06;;;;;;;10.98;1.42;;;13.10;99.90;;;;;;4973574;28;20027;-73
2022/07/14 03:22:32;;;;;;;7.97;1.58;;;13.00;99.90;;;;;;4971730;28;20027;-72
2022/07/14 03:24:57;;;;;;;9.77;1.80;;;13.00;99.90;;;;;;4964095;28;20041;-72
2022/07/14 03:27:23;;;;;;;6.15;1.20;;;12.90;99.90;;;;;;4960103;28;20027;-72
2022/07/14 03:29:48;;;;;;;12.43;0.98;;;12.90;99.90;;;;;;4964785;28;20026;-72
2022/07/14 03:32:14;;;;;;;11.25;1.63;;;12.90;99.90;;;;;;4972272;28;20087;-72
2022/07/14 03:34:39;;;;;;;10.52;1.58;;;12.90;99.90;;;;;;4969347;28;20039;-72
2022/07/14 03:37:05;;;;;;;8.80;1.65;;;12.80;99.90;;;;;;4972690;28;20039;-73
2022/07/14 03:39:30;;;;;;;11.43;2.60;;;12.80;99.90;;;;;;4970284;28;20109;-73
2022/07/14 03:41:56;;;;;;;10.23;1.40;;;12.70;99.90;;;;;;4972081;28;20056;-72
2022/07/14 03:44:22;;;;;;;8.70;1.38;;;12.70;99.90;;;;;;4968319;28;20039;-73
2022/07/14 03:46:47;;;;;;;7.32;1.65;;;12.70;99.90;;;;;;4969861;28;20123;-73
2022/07/14 03:49:13;;;;;;;6.10;1.60;;;12.60;99.90;;;;;;4969682;28;20031;-72
2022/07/14 03:51:44;;;;;;;11.55;2.47;;;12.60;99.90;;;;;;4972114;28;20050;-73
2022/07/14 03:54:10;;;;;;;11.52;2.47;;;12.60;99.90;;;;;;4969794;28;20055;-73
2022/07/14 03:56:36;;;;;;;6.07;1.50;;;12.60;99.90;;;;;;4971188;28;20027;-72
2022/07/14 03:59:03;;;;;;;9.73;2.38;;;12.60;99.90;;;;;;4971259;28;20054;-73
2022/07/14 04:01:28;;;;;;;7.45;1.45;;;12.50;99.90;;;;;;4972035;28;20039;-72
2022/07/14 04:03:54;;;;;;;9.13;1.98;;;12.50;99.90;;;;;;4971206;28;20121;-73
2022/07/14 04:06:20;;;;;;;12.73;2.33;;;12.50;99.90;;;;;;4959126;28;20503;-72
2022/07/14 04:08:46;;;;;;;13.23;2.15;;;12.50;99.90;;;;;;4961393;28;20034;-72
2022/07/14 04:11:12;;;;;;;7.43;1.90;;;12.50;99.90;;;;;;4964808;28;20387;-72
2022/07/14 04:13:38;;;;;;;9.23;1.50;;;12.50;99.90;;;;;;4958510;28;20027;-72
2022/07/14 04:16:04;;;;;;;6.22;1.15;;;12.50;99.90;;;;;;4969721;28;20081;-73
2022/07/14 04:18:29;;;;;;;14.55;2.28;;;12.50;99.90;;;;;;4985059;28;20058;-73
2022/07/14 04:20:55;;;;;;;9.40;1.77;;;12.50;99.90;;;;;;4971316;28;20096;-72
2022/07/14 04:23:21;;;;;;;9.98;2.20;;;12.50;99.90;;;;;;4969223;28;20027;-72
2022/07/14 04:25:47;;;;;;;9.10;2.35;;;12.50;99.90;;;;;;4972328;28;20023;-72
2022/07/14 04:28:14;;;;;;;7.30;1.92;;;12.60;99.90;;;;;;4968841;28;20062;-73
2022/07/14 04:30:39;;;;;;;7.65;2.05;;;12.50;99.90;;;;;;4970565;28;20117;-72
2022/07/14 04:33:05;;;;;;;8.02;1.60;;;12.60;99.90;;;;;;4968754;28;20073;-73
2022/07/14 04:35:30;;;;;;;9.95;2.42;;;12.50;99.90;;;;;;4968746;28;20565;-72
2022/07/14 04:37:56;;;;;;;11.32;2.35;;;12.60;99.90;;;;;;4968082;28;20030;-72
2022/07/14 04:40:21;;;;;;;12.80;2.80;;;12.60;99.90;;;;;;4970384;28;20050;-72
2022/07/14 04:42:47;;;;;;;12.63;2.80;;;12.70;99.90;;;;;;4971383;28;20066;-73
2022/07/14 04:45:12;;;;;;;12.93;2.83;;;12.70;99.90;;;;;;4970940;28;20038;-72
2022/07/14 04:47:38;;;;;;;10.85;2.45;;;12.80;99.90;;;;;;4967308;28;20428;-73
2022/07/14 04:52:49;;;;;;;9.65;2.38;;;12.90;99.90;;;;;;4972078;28;20037;-72
2022/07/14 04:55:16;;;;;;;9.63;1.95;;;13.00;99.90;;;;;;4969356;28;20038;-73
2022/07/14 04:57:42;;;;;;;14.63;2.40;;;13.10;99.90;;;;;;4969992;28;20035;-72
2022/07/14 05:00:09;;;;;;;13.52;2.50;;;13.10;99.90;;;;;;4971079;28;20078;-73
2022/07/14 05:02:36;;;;;;;15.38;2.88;;;13.30;99.90;;;;;;4972223;28;20053;-73
2022/07/14 05:05:02;;;;;;;10.15;2.17;;;13.50;99.90;;;;;;4971741;28;20113;-73
2022/07/14 05:07:29;;;;;;;11.80;2.35;;;13.90;99.90;;;;;;4964788;28;20065;-73
2022/07/14 05:09:55;;;;;;;10.88;1.40;;;14.40;99.90;;;;;;4971006;28;20102;-73
2022/07/14 05:12:20;;;;;;;8.68;1.48;;;14.90;99.90;;;;;;4969463;28;20039;-73
2022/07/14 05:14:46;;;;;;;12.48;1.73;;;15.40;99.90;;;;;;4960989;28;20035;-73
2022/07/14 05:17:12;;;;;;;13.65;2.00;;;15.80;99.90;;;;;;4971188;28;20026;-73
2022/07/14 05:19:38;;;;;;;6.15;1.48;;;16.20;99.90;;;;;;4969389;28;20078;-73
2022/07/14 05:22:04;;;;;;;6.93;1.48;;;16.60;99.90;;;;;;4968889;28;20062;-73
2022/07/14 05:24:30;;;;;;;11.35;1.73;;;17.00;99.90;;;;;;4966676;28;20035;-74
2022/07/14 05:26:58;;;;;;;26.00;5.15;;;17.30;99.90;;;;;;4971478;28;20465;-73
2022/07/14 05:29:23;;;;;;;13.98;2.70;;;17.60;99.90;;;;;;4969127;28;20055;-73
2022/07/14 05:31:49;;;;;;;22.70;4.88;;;17.90;99.90;;;;;;4964508;28;20034;-73
2022/07/14 05:34:14;;;;;;;9.52;1.65;;;18.40;99.90;;;;;;4966185;28;20035;-73
2022/07/14 05:36:40;;;;;;;9.07;1.33;;;18.80;99.90;;;;;;4968833;28;20041;-73
2022/07/14 05:39:05;;;;;;;8.30;1.20;;;19.00;99.90;;;;;;4967715;28;20050;-74
2022/07/14 05:41:31;;;;;;;5.80;1.27;;;19.20;99.90;;;;;;4966298;28;20054;-73
2022/07/14 05:43:56;;;;;;;6.95;0.90;;;19.40;99.90;;;;;;4969145;28;20066;-73
2022/07/14 05:46:22;;;;;;;7.32;1.10;;;19.50;99.90;;;;;;4968571;28;20073;-72
2022/07/14 05:48:47;;;;;;;9.02;0.88;;;19.60;99.90;;;;;;4975045;28;20030;-72
2022/07/14 05:51:16;;;;;;;9.73;1.17;;;19.70;99.90;;;;;;4969140;28;20054;-72
2022/07/14 05:53:43;;;;;;;7.25;1.10;;;19.60;99.90;;;;;;4970308;28;20038;-72
2022/07/14 05:56:10;;;;;;;6.30;0.98;;;19.50;99.90;;;;;;4973762;28;20383;-72
2022/07/14 05:58:36;;;;;;;12.65;1.50;;;19.40;99.90;;;;;;4967876;28;20462;-72
2022/07/14 06:01:03;;;;;;;8.05;1.33;;;19.20;99.90;;;;;;4974494;28;20078;-72
2022/07/14 06:03:29;;;;;;;8.07;1.00;;;19.10;99.90;;;;;;4974653;28;20045;-72
2022/07/14 06:05:54;;;;;;;9.25;1.02;;;19.00;99.90;;;;;;4973567;28;20518;-72
2022/07/14 06:08:20;;;;;;;8.27;1.15;;;18.90;99.90;;;;;;4974030;28;20132;-72
2022/07/14 06:10:45;;;;;;;7.10;0.70;;;18.90;99.90;;;;;;4974919;28;20091;-72
2022/07/14 06:13:11;;;;;;;10.45;1.33;;;18.80;99.90;;;;;;4975591;28;20069;-72
2022/07/14 06:15:37;;;;;;;11.52;1.25;;;18.80;99.90;;;;;;4972691;28;20054;-72
2022/07/14 06:18:02;;;;;;;9.98;1.40;;;18.80;99.90;;;;;;4972440;28;20050;-72
2022/07/14 06:20:28;;;;;;;12.07;1.40;;;18.80;99.90;;;;;;4975466;28;20041;-72
2022/07/14 06:22:54;;;;;;;9.27;0.90;;;18.80;99.90;;;;;;4969367;28;20031;-72
2022/07/14 06:25:20;;;;;;;8.57;0.98;;;18.80;99.90;;;;;;4970685;28;20019;-72
2022/07/14 06:27:45;;;;;;;7.72;0.90;;;18.80;99.90;;;;;;4973606;28;20023;-72
2022/07/14 06:30:11;;;;;;;10.52;1.27;;;18.80;99.90;;;;;;4974324;28;20058;-72
2022/07/14 06:32:41;;;;;;;12.50;1.40;;;18.90;99.90;;;;;;4970777;28;20019;-72
2022/07/14 06:35:08;;;;;;;9.60;0.90;;;18.90;99.90;;;;;;4978737;28;20042;-72
2022/07/14 06:37:36;;;;;;;11.07;1.48;;;18.90;99.90;;;;;;4966455;28;20039;-72
2022/07/14 06:40:06;;;;;;;8.57;1.20;;;18.80;99.90;;;;;;4965018;28;20512;-73
2022/07/14 06:42:32;;;;;;;10.40;1.33;;;18.80;99.90;;;;;;4970471;28;20537;-72
2022/07/14 06:44:58;;;;;;;11.18;1.00;;;18.90;99.90;;;;;;4970694;28;20026;-72
2022/07/14 06:47:23;;;;;;;11.70;1.00;;;18.80;99.90;;;;;;4968977;28;20491;-72
2022/07/14 06:49:49;;;;;;;13.45;1.02;;;18.70;99.90;;;;;;4970212;28;20536;-73
2022/07/14 06:52:14;;;;;;;8.27;1.00;;;18.60;99.90;;;;;;4971817;28;20038;-73
2022/07/14 06:54:40;;;;;;;5.93;0.80;;;18.60;99.90;;;;;;4970490;28;20078;-72
2022/07/14 06:57:06;;;;;;;9.18;1.67;;;18.60;99.90;;;;;;4954760;29;20029;-71
2022/07/14 06:59:31;;;;;;;10.15;0.70;;;18.70;99.90;;;;;;4967924;28;20081;-71
2022/07/14 07:01:57;;;;;;;11.27;0.68;;;18.80;99.90;;;;;;4970632;28;20368;-71
2022/07/14 07:04:23;;;;;;;7.95;1.10;;;18.70;99.90;;;;;;4973816;28;20041;-71
2022/07/14 07:06:50;;;;;;;5.03;0.60;;;18.80;99.90;;;;;;4974530;28;20387;-71
2022/07/14 07:09:18;;;;;;;9.07;0.70;;;18.80;99.90;;;;;;4973112;28;20110;-71
2022/07/14 07:11:45;;;;;;;4.43;0.60;;;18.80;99.90;;;;;;4971754;28;20038;-71
2022/07/14 07:14:10;;;;;;;5.03;0.50;;;18.90;99.90;;;;;;4973133;28;20081;-72
2022/07/14 07:16:36;;;;;;;8.45;0.80;;;19.00;99.90;;;;;;4973551;28;20042;-71
2022/07/14 07:19:03;;;;;;;9.02;1.10;;;19.00;99.90;;;;;;4972299;28;20039;-72
2022/07/14 07:21:29;;;;;;;9.23;0.65;;;19.10;99.90;;;;;;4974022;28;20023;-71
2022/07/14 07:23:54;;;;;;;4.93;0.57;;;19.20;99.90;;;;;;4973953;28;20045;-72
2022/07/14 07:26:24;;;;;;;7.97;0.85;;;19.30;99.90;;;;;;4972053;28;20031;-71
2022/07/14 07:28:51;;;;;;;5.60;0.47;;;19.40;99.90;;;;;;4972542;28;20177;-72
2022/07/14 07:31:16;;;;;;;7.20;0.55;;;19.50;99.90;;;;;;4971870;28;20070;-72
2022/07/14 07:33:42;;;;;;;5.65;0.50;;;19.60;99.90;;;;;;4968742;28;20461;-72
2022/07/14 07:36:07;;;;;;;5.65;0.60;;;19.70;99.90;;;;;;4964422;28;20027;-71
2022/07/14 07:38:33;;;;;;;4.95;0.43;;;19.70;99.90;;;;;;4972177;28;20057;-72
2022/07/14 07:41:01;;;;;;;10.45;0.70;;;19.70;99.90;;;;;;4972313;28;20383;-72
2022/07/14 07:43:27;;;;;;;5.13;0.40;;;19.80;99.90;;;;;;4956066;28;20110;-72
2022/07/14 07:45:53;;;;;;;3.10;0.60;;;19.80;99.90;;;;;;4976200;28;20125;-72
2022/07/14 07:48:19;;;;;;;7.32;0.50;;;19.80;99.90;;;;;;4970962;28;20153;-72
2022/07/14 07:50:45;;;;;;;6.38;0.50;;;19.90;99.90;;;;;;4972095;28;20137;-71
2022/07/14 07:53:12;;;;;;;8.55;0.68;;;19.90;99.90;;;;;;4970112;28;20085;-72
2022/07/14 07:55:38;;;;;;;3.85;0.57;;;19.90;99.90;;;;;;4971440;28;20062;-72
2022/07/14 07:58:05;;;;;;;9.80;0.90;;;20.00;99.70;;;;;;4970537;28;20049;-72
2022/07/14 08:00:30;;;;;;;4.50;0.60;;;20.00;99.40;;;;;;4972727;28;20046;-72
2022/07/14 08:02:57;;;;;;;4.35;0.50;;;19.90;99.30;;;;;;4973031;28;20038;-72
2022/07/14 08:05:26;;;;;;;6.53;0.70;;;19.90;99.00;;;;;;4972750;28;20030;-72
2022/07/14 08:07:52;;;;;;;6.72;0.50;;;19.80;98.70;;;;;;4971200;28;20026;-72
2022/07/14 08:10:18;;;;;;;7.68;0.40;;;19.90;98.60;;;;;;4970282;28;20057;-72
2022/07/14 08:12:44;;;;;;;6.72;0.50;;;19.90;98.70;;;;;;4972720;28;20026;-72
2022/07/14 08:15:10;;;;;;;6.05;0.40;;;20.00;98.60;;;;;;4970522;28;20077;-72
2022/07/14 08:17:36;;;;;;;7.78;0.70;;;20.00;98.10;;;;;;4972674;28;20038;-72
2022/07/14 08:20:02;;;;;;;6.60;0.70;;;20.10;97.90;;;;;;4971309;28;20375;-72
2022/07/14 08:22:28;;;;;;;6.80;0.55;;;20.10;98.00;;;;;;4972856;28;20033;-72
2022/07/14 08:24:55;;;;;;;7.38;0.50;;;20.20;97.90;;;;;;4970548;28;20126;-71
2022/07/14 08:27:21;;;;;;;6.20;0.47;;;20.30;97.70;;;;;;4970050;28;20066;-72
2022/07/14 08:29:47;;;;;;;4.75;0.52;;;20.30;97.60;;;;;;4971807;28;20038;-72
2022/07/14 08:32:12;;;;;;;3.00;0.40;;;20.30;97.50;;;;;;4972137;28;20186;-72
2022/07/14 08:34:38;;;;;;;4.82;0.50;;;20.40;96.90;;;;;;4972764;28;20395;-72
2022/07/14 08:37:05;;;;;;;4.45;0.50;;;20.50;96.80;;;;;;4972387;28;20121;-72
2022/07/14 08:39:31;;;;;;;6.20;0.73;;;20.60;96.80;;;;;;4970736;28;20038;-71
2022/07/14 08:41:59;;;;;;;5.03;0.50;;;20.70;96.60;;;;;;4972508;28;20465;-71
2022/07/14 08:44:26;;;;;;;6.60;0.52;;;20.80;96.70;;;;;;4972368;28;20026;-72
2022/07/14 08:46:55;;;;;;;4.55;0.40;;;21.00;96.70;;;;;;4970789;28;20030;-72
2022/07/14 08:49:21;;;;;;;3.03;0.30;;;21.10;95.90;;;;;;4969551;28;20498;-71
2022/07/14 08:51:49;;;;;;;6.90;0.40;;;21.20;95.20;;;;;;4971552;28;20045;-72
2022/07/14 08:54:15;;;;;;;5.07;0.65;;;21.20;94.60;;;;;;4968489;28;20510;-72
2022/07/14 08:56:41;;;;;;;4.78;0.30;;;21.20;94.20;;;;;;4970912;28;20109;-71
2022/07/14 08:59:08;;;;;;;5.13;0.30;;;21.20;94.30;;;;;;4971033;28;20177;-72
2022/07/14 09:01:34;;;;;;;3.85;0.32;;;21.40;94.00;;;;;;4972514;28;20027;-72
2022/07/14 09:04:01;;;;;;;5.53;0.50;;;21.40;93.60;;;;;;4971634;28;20376;-72
2022/07/14 09:06:43;;;;;;;4.38;0.50;;;21.30;93.70;;;;;;4971278;28;20023;-72
2022/07/14 09:09:08;;;;;;;3.13;0.30;;;21.40;93.90;;;;;;4969329;28;20093;-72
2022/07/14 09:11:34;;;;;;;4.55;0.55;;;21.40;93.70;;;;;;4972406;28;20034;-72
2022/07/14 09:14:09;;;;;;;5.57;0.40;;;21.50;93.80;;;;;;4972522;28;20034;-72
2022/07/14 09:16:35;;;;;;;3.40;0.77;;;21.70;93.50;;;;;;4971278;28;20058;-72
2022/07/14 09:19:07;;;;;;;5.50;0.30;;;21.80;93.50;;;;;;4971074;28;20066;-72
2022/07/14 09:21:34;;;;;;;5.53;0.50;;;21.90;92.80;;;;;;4971879;28;20030;-72
2022/07/14 09:24:00;;;;;;;7.30;0.80;;;21.90;92.00;;;;;;4975494;28;20031;-72
2022/07/14 09:26:26;;;;;;;3.95;0.68;;;21.80;91.70;;;;;;4976085;28;20023;-72
2022/07/14 09:28:52;;;;;;;6.43;0.43;;;21.90;91.20;;;;;;4974740;28;20027;-72
2022/07/14 09:31:25;;;;;;;4.40;0.50;;;22.00;91.00;;;;;;4975701;28;20423;-72
2022/07/14 09:34:05;;;;;;;3.58;0.40;;;22.00;90.80;;;;;;4976376;28;20027;-72
2022/07/14 09:36:35;;;;;;;2.78;0.30;;;22.10;91.00;;;;;;4972267;28;20382;-72
2022/07/14 09:39:09;;;;;;;1.88;0.30;;;22.20;90.90;;;;;;4974264;28;20050;-72
2022/07/14 09:41:52;;;;;;;2.55;0.40;;;22.40;90.20;;;;;;4974096;28;20027;-72
2022/07/14 09:44:19;;;;;;;4.55;0.35;;;22.40;89.40;;;;;;4975668;28;20121;-72
2022/07/14 09:46:57;;;;;;;2.50;0.30;;;22.40;89.20;;;;;;4974137;28;20031;-72
2022/07/14 09:49:26;;;;;;;2.65;0.30;;;22.50;88.20;;;;;;4974152;28;20495;-72
2022/07/14 09:52:00;;;;;;;5.80;0.28;;;22.50;87.50;;;;;;4974395;28;20025;-72
2022/07/14 09:54:37;;;;;;;3.63;0.22;;;22.60;86.50;;;;;;4974953;28;20031;-72
2022/07/14 09:57:12;;;;;;;5.60;0.30;;;22.60;85.90;;;;;;4975178;28;20023;-72
2022/07/14 09:59:47;;;;;;;2.75;0.30;;;22.70;85.20;;;;;;4974313;28;20383;-72
2022/07/14 10:02:18;;;;;;;2.58;0.30;;;22.80;84.50;;;;;;4972261;28;20025;-72
2022/07/14 10:04:45;;;;;;;3.85;0.30;;;22.90;85.30;;;;;;4974322;28;20027;-72
2022/07/14 10:07:12;;;;;;;2.70;0.40;;;23.10;85.30;;;;;;4975045;28;20033;-72
2022/07/14 10:09:43;;;;;;;2.85;0.40;;;23.20;84.30;;;;;;4974062;28;20103;-72
2022/07/14 10:12:09;;;;;;;9.33;0.40;;;23.30;82.80;;;;;;4973886;28;20045;-72
2022/07/14 10:14:36;;;;;;;4.68;0.47;;;23.40;82.00;;;;;;4974885;28;20498;-72
2022/07/14 10:17:02;;;;;;;4.03;0.40;;;23.40;81.20;;;;;;4971427;28;20034;-72
2022/07/14 10:19:28;;;;;;;4.95;0.45;;;23.40;81.50;;;;;;4975111;28;20043;-72
2022/07/14 10:21:59;;;;;;;2.63;0.30;;;23.40;80.50;;;;;;4974156;28;20424;-71
2022/07/14 10:24:25;;;;;;;6.00;0.50;;;23.40;81.10;;;;;;4974585;28;20043;-72
2022/07/14 10:26:52;;;;;;;5.20;0.40;;;23.60;80.70;;;;;;4974776;28;20106;-72
2022/07/14 10:29:18;;;;;;;4.22;0.40;;;23.70;80.40;;;;;;4974176;28;20387;-72
2022/07/14 10:32:05;;;;;;;4.28;0.30;;;23.70;78.80;;;;;;4969791;28;20026;-72
2022/07/14 10:34:46;;;;;;;3.15;0.40;;;23.70;77.50;;;;;;4970952;28;20027;-72
2022/07/14 10:37:32;;;;;;;4.38;0.40;;;23.70;77.50;;;;;;4969535;28;20037;-72
2022/07/14 10:40:03;;;;;;;4.40;0.40;;;23.70;76.50;;;;;;4972601;28;20031;-71
2022/07/14 10:43:06;;;;;;;2.72;0.50;;;23.80;75.70;;;;;;4975009;28;20054;-71
2022/07/14 10:45:32;;;;;;;2.10;0.30;;;23.90;74.60;;;;;;4973081;28;20074;-71
2022/07/14 10:47:58;;;;;;;2.08;0.38;;;24.00;74.00;;;;;;4973768;28;20034;-72
2022/07/14 10:50:26;;;;;;;3.42;0.63;;;24.20;74.00;;;;;;4972389;28;20113;-72
2022/07/14 10:52:55;;;;;;;5.10;0.43;;;24.30;73.80;;;;;;4973045;28;20030;-71
2022/07/14 10:55:24;;;;;;;2.75;0.50;;;24.30;72.60;;;;;;4974179;28;20115;-71
2022/07/14 10:57:59;;;;;;;4.25;0.60;;;24.30;71.50;;;;;;4973945;28;20387;-72
2022/07/14 11:00:47;;;;;;;4.30;0.40;;;24.30;70.50;;;;;;4973095;28;20047;-72
2022/07/14 11:03:22;;;;;;;4.28;0.45;;;24.20;69.90;;;;;;4966765;28;20026;-72
2022/07/14 11:06:13;;;;;;;2.50;0.32;;;24.30;70.90;;;;;;4965135;28;20743;-71
2022/07/14 11:08:44;;;;;;;4.13;0.35;;;24.50;70.10;;;;;;4966235;28;20026;-72
2022/07/14 11:11:21;;;;;;;2.75;0.50;;;24.60;70.10;;;;;;4973689;28;20027;-72
2022/07/14 11:14:07;;;;;;;1.98;0.40;;;24.80;69.60;;;;;;4956513;28;20031;-72
2022/07/14 11:16:55;;;;;;;8.82;0.85;;;24.90;69.50;;;;;;4969056;28;20494;-72
2022/07/14 11:19:38;;;;;;;3.92;0.30;;;25.10;69.00;;;;;;4971889;28;20108;-72
2022/07/14 11:22:21;;;;;;;2.05;0.32;;;25.20;68.80;;;;;;4972833;28;20086;-73
2022/07/14 11:24:56;;;;;;;2.22;0.30;;;25.20;67.90;;;;;;4972239;28;20054;-72
2022/07/14 11:27:33;;;;;;;3.05;0.38;;;25.40;68.30;;;;;;4972324;28;20034;-73
2022/07/14 11:30:27;;;;;;;6.18;0.50;;;25.70;65.90;;;;;;4969826;28;20106;-73
2022/07/14 11:33:08;;;;;;;2.42;0.22;;;25.80;64.00;;;;;;4965003;28;20038;-73
2022/07/14 11:38:28;;;;;;;2.35;0.35;;;25.80;64.10;;;;;;4966867;28;20119;-73
2022/07/14 11:40:54;;;;;;;3.13;0.30;;;25.90;64.80;;;;;;4971831;28;20054;-73
2022/07/14 11:43:26;;;;;;;2.47;0.30;;;26.10;64.50;;;;;;4973032;28;20035;-73
2022/07/14 11:45:56;;;;;;;;;;;26.20;63.30;;;;;;4972058;28;20478;-73
2022/07/14 11:48:27;;;;;;;3.15;0.30;;;26.40;63.70;;;;;;4972864;28;19997;-73
2022/07/14 11:51:06;;;;;;;1.35;0.28;;;26.50;62.80;;;;;;4971685;28;20031;-73
2022/07/14 11:53:36;;;;;;;3.85;0.65;;;26.50;61.90;;;;;;4973488;28;20019;-73
2022/07/14 11:56:04;;;;;;;2.03;0.50;;;26.50;61.90;;;;;;4973197;28;20027;-73
2022/07/14 11:58:31;;;;;;;4.28;0.30;;;26.40;61.50;;;;;;4972779;28;20101;-73
2022/07/14 12:00:58;;;;;;;2.72;0.30;;;26.30;61.20;;;;;;4972329;28;20406;-73
2022/07/14 12:03:25;;;;;;;2.50;0.40;;;26.30;61.70;;;;;;4972051;28;20031;-73
2022/07/14 12:05:54;;;;;;;4.85;0.30;;;26.30;61.70;;;;;;4973142;28;20062;-73
2022/07/14 12:08:25;;;;;;;2.90;0.40;;;26.30;61.30;;;;;;4972829;28;20398;-73
2022/07/14 12:10:51;;;;;;;1.52;0.30;;;26.20;61.50;;;;;;4971442;28;20037;-73
2022/07/14 12:13:20;;;;;;;2.00;0.30;;;26.20;62.20;;;;;;4972512;28;20035;-73
2022/07/14 12:15:47;;;;;;;2.40;0.60;;;26.30;62.00;;;;;;4972198;28;20033;-72
2022/07/14 12:18:13;;;;;;;4.47;0.40;;;26.30;61.70;;;;;;4972901;28;20058;-72
2022/07/14 12:20:45;;;;;;;3.90;0.35;;;26.30;61.00;;;;;;4973396;28;20474;-73
2022/07/14 12:23:12;;;;;;;3.17;0.30;;;26.30;61.10;;;;;;4971743;28;20030;-73
2022/07/14 12:25:42;;;;;;;5.78;0.40;;;26.30;61.00;;;;;;4972067;28;20372;-72
2022/07/14 12:28:16;;;;;;;3.15;0.30;;;26.10;60.90;;;;;;4971549;28;20035;-72
2022/07/14 12:30:48;;;;;;;2.08;0.63;;;25.80;61.20;;;;;;4972753;28;20158;-73
2022/07/14 12:33:23;;;;;;;1.73;0.30;;;25.70;61.90;;;;;;4975589;28;20054;-72
2022/07/14 12:35:51;;;;;;;2.30;0.30;;;25.70;62.10;;;;;;4976107;28;20057;-72
2022/07/14 12:38:18;;;;;;;3.35;0.30;;;25.90;61.90;;;;;;4976107;28;20037;-74
2022/07/14 12:40:48;;;;;;;1.38;0.20;;;26.10;61.50;;;;;;4977535;28;20109;-74
2022/07/14 12:43:13;;;;;;;2.90;0.30;;;26.10;61.40;;;;;;4978154;28;20099;-73
2022/07/14 12:46:03;;;;;;;1.00;0.20;;;26.10;61.20;;;;;;4976380;28;20043;-71
2022/07/14 12:48:30;;;;;;;1.90;0.20;;;26.00;61.10;;;;;;4974015;28;20121;-72
2022/07/14 12:51:15;;;;;;;3.55;0.57;;;25.80;61.60;;;;;;4973401;28;20046;-72
2022/07/14 12:54:02;;;;;;;2.00;0.52;;;25.70;62.00;;;;;;4963977;28;20356;-72
2022/07/14 12:56:48;;;;;;;2.90;0.30;;;25.60;62.10;;;;;;4973861;28;20039;-73